Time;durP1;ratioP1;P1;durP2;ratioP2;P2;SDS_P1;SDS_P2;PMS_P1;PMS_P2;Temp;Humidity;BMP_temperature;BMP_pressure;BME280_temperature;BME280_humidity;BME280_pressure;Samples;Min_cycle;Max_cycle;Signal;HPM_P1;HPM_P2
2021/08/31 00:00:20;;;;;;;0.10;0.10;;;;;;;18.61;88.35;99521.91;4952602;28;20082;-67
2021/08/31 00:02:46;;;;;;;0.10;0.10;;;;;;;18.67;88.19;99523.81;4950965;29;20043;-68
2021/08/31 00:05:13;;;;;;;0.10;0.10;;;;;;;18.67;88.01;99529.28;4952695;29;20193;-68
2021/08/31 00:07:39;;;;;;;0.10;0.10;;;;;;;18.69;87.58;99538.16;4948185;29;20439;-68
2021/08/31 00:10:06;;;;;;;0.10;0.10;;;;;;;18.68;87.14;99531.81;4950816;28;20059;-69
2021/08/31 00:12:31;;;;;;;0.10;0.10;;;;;;;18.70;87.33;99539.84;4950899;29;20070;-67
2021/08/31 00:14:57;;;;;;;0.10;0.10;;;;;;;18.75;87.32;99548.31;4950687;29;20514;-67
2021/08/31 00:17:23;;;;;;;0.10;0.10;;;;;;;18.74;86.98;99541.97;4950989;29;20047;-68
2021/08/31 00:19:49;;;;;;;0.17;0.17;;;;;;;18.77;86.93;99541.56;4935010;29;20113;-66
2021/08/31 00:22:15;;;;;;;0.15;0.15;;;;;;;18.70;87.43;99545.31;4918883;29;20039;-67
2021/08/31 00:24:41;;;;;;;0.15;0.15;;;;;;;18.69;87.31;99528.03;4945093;29;20070;-67
2021/08/31 00:27:08;;;;;;;0.10;0.10;;;;;;;18.62;87.51;99515.38;4933133;29;20459;-67
2021/08/31 00:29:34;;;;;;;0.10;0.10;;;;;;;18.59;87.87;99521.28;4931931;29;20138;-68
2021/08/31 00:32:00;;;;;;;0.10;0.10;;;;;;;18.55;87.66;99515.38;4915906;29;20079;-68
2021/08/31 00:34:26;;;;;;;0.15;0.15;;;;;;;18.55;87.75;99521.69;4931524;29;20055;-66
2021/08/31 00:36:52;;;;;;;0.13;0.13;;;;;;;18.50;87.88;99517.84;4931267;29;20478;-67
2021/08/31 00:39:19;;;;;;;0.10;0.10;;;;;;;18.48;88.24;99520.81;4931629;29;20043;-69
2021/08/31 00:41:47;;;;;;;0.10;0.10;;;;;;;18.45;88.33;99507.53;4916437;29;20047;-67
2021/08/31 00:44:25;;;;;;;0.10;0.10;;;;;;;18.48;88.01;99515.34;4933015;29;20051;-67
2021/08/31 00:46:56;;;;;;;0.10;0.10;;;;;;;18.44;88.07;99514.06;4933151;29;20138;-67
2021/08/31 00:49:23;;;;;;;0.10;0.10;;;;;;;18.41;88.41;99525.44;4915864;29;20051;-67
2021/08/31 00:51:49;;;;;;;0.13;0.13;;;;;;;18.40;88.48;99526.47;4931778;29;20044;-66
2021/08/31 00:54:22;;;;;;;0.10;0.10;;;;;;;18.43;88.32;99528.81;4933606;29;20428;-67
2021/08/31 00:56:54;;;;;;;0.10;0.10;;;;;;;18.50;87.84;99529.69;4916673;29;20399;-67
2021/08/31 00:59:20;;;;;;;0.10;0.10;;;;;;;18.49;87.85;99527.97;4933066;29;20055;-66
2021/08/31 01:02:04;;;;;;;0.20;0.20;;;;;;;18.42;88.16;99527.09;4931539;29;20129;-68
2021/08/31 01:04:31;;;;;;;0.10;0.10;;;;;;;18.43;88.08;99533.41;4918136;29;20058;-67
2021/08/31 01:06:58;;;;;;;0.10;0.10;;;;;;;18.39;87.99;99533.00;4952390;28;20051;-66
2021/08/31 01:09:25;;;;;;;0.10;0.10;;;;;;;18.45;87.74;99536.81;4955274;28;20043;-65
2021/08/31 01:11:52;;;;;;;0.10;0.10;;;;;;;18.51;87.31;99536.84;4953857;29;20055;-66
2021/08/31 01:14:19;;;;;;;0.10;0.10;;;;;;;18.45;87.50;99537.66;4947257;29;20053;-66
2021/08/31 01:16:46;;;;;;;0.10;0.10;;;;;;;18.41;87.62;99525.44;4918683;29;20050;-67
2021/08/31 01:19:12;;;;;;;0.10;0.10;;;;;;;18.40;87.81;99526.47;4918613;29;20389;-68
2021/08/31 01:21:38;;;;;;;0.10;0.10;;;;;;;18.42;87.40;99516.16;4918335;29;20135;-66
2021/08/31 01:24:04;;;;;;;0.10;0.10;;;;;;;18.38;87.25;99525.81;4936984;29;20039;-68
2021/08/31 01:26:30;;;;;;;0.10;0.10;;;;;;;18.31;87.55;99524.97;4953481;29;20497;-67
2021/08/31 01:28:59;;;;;;;0.10;0.10;;;;;;;18.36;87.50;99527.09;4953581;29;20046;-65
2021/08/31 01:31:24;;;;;;;0.20;0.20;;;;;;;18.37;87.54;99535.09;4937506;29;20083;-67
2021/08/31 01:33:50;;;;;;;0.10;0.10;;;;;;;18.32;87.54;99532.16;4937055;29;20145;-66
2021/08/31 01:36:24;;;;;;;0.10;0.10;;;;;;;18.33;87.61;99528.34;4937136;29;20043;-67
2021/08/31 01:38:52;;;;;;;0.10;0.10;;;;;;;18.34;87.38;99526.44;4969350;28;20061;-67
2021/08/31 01:41:18;;;;;;;0.10;0.10;;;;;;;18.27;87.47;99531.88;4969544;28;20142;-68
2021/08/31 01:43:44;;;;;;;0.10;0.10;;;;;;;18.20;87.53;99531.84;4969277;28;20098;-67
2021/08/31 01:46:10;;;;;;;0.13;0.13;;;;;;;18.22;87.64;99537.97;4954464;28;20413;-67
2021/08/31 01:48:36;;;;;;;0.10;0.10;;;;;;;18.22;87.58;99529.78;4953077;29;20154;-66
2021/08/31 01:51:02;;;;;;;0.10;0.10;;;;;;;18.27;87.42;99529.16;4953151;29;20101;-66
2021/08/31 01:53:28;;;;;;;0.10;0.10;;;;;;;18.18;87.64;99536.72;4953291;29;20063;-68
2021/08/31 01:55:54;;;;;;;0.10;0.10;;;;;;;18.16;87.48;99532.47;4952872;29;20055;-67
2021/08/31 01:58:20;;;;;;;0.10;0.10;;;;;;;18.17;87.75;99523.22;4953381;29;20055;-67
2021/08/31 02:00:46;;;;;;;0.10;0.10;;;;;;;18.20;87.43;99528.28;4969138;28;20035;-68
2021/08/31 02:03:12;;;;;;;0.17;0.17;;;;;;;18.05;88.07;99534.72;4954477;29;20075;-67
2021/08/31 02:05:38;;;;;;;0.10;0.10;;;;;;;18.08;87.65;99531.59;4953082;29;20047;-67
2021/08/31 02:08:04;;;;;;;0.13;0.13;;;;;;;18.11;87.51;99543.19;4954266;28;20515;-67
2021/08/31 02:10:30;;;;;;;0.10;0.10;;;;;;;18.14;87.51;99540.06;4969113;28;20383;-67
2021/08/31 02:12:56;;;;;;;0.10;0.10;;;;;;;18.10;87.26;99536.88;4944815;29;20467;-69
2021/08/31 02:15:22;;;;;;;0.10;0.10;;;;;;;18.02;87.65;99548.81;4933783;29;20098;-67
2021/08/31 02:17:47;;;;;;;0.20;0.20;;;;;;;17.96;87.62;99544.16;4934348;29;20403;-67
2021/08/31 02:20:13;;;;;;;0.15;0.15;;;;;;;18.00;87.49;99545.44;4933738;29;20440;-67
2021/08/31 02:22:40;;;;;;;0.10;0.10;;;;;;;18.01;87.53;99549.88;4943361;28;20054;-66
2021/08/31 02:25:06;;;;;;;0.10;0.10;;;;;;;17.97;86.99;99540.38;4953905;29;20488;-68
2021/08/31 02:27:32;;;;;;;0.20;0.20;;;;;;;17.98;86.92;99542.06;4970071;28;20047;-66
2021/08/31 02:29:58;;;;;;;0.10;0.10;;;;;;;17.98;86.98;99546.69;4954276;29;20530;-68
2021/08/31 02:32:23;;;;;;;0.10;0.10;;;;;;;17.95;86.94;99539.75;4949929;29;20039;-69
2021/08/31 02:34:49;;;;;;;0.10;0.10;;;;;;;17.90;87.15;99547.69;4949907;29;20106;-66
2021/08/31 02:37:15;;;;;;;0.20;0.20;;;;;;;17.91;87.27;99549.38;4935997;29;20502;-66
2021/08/31 02:39:43;;;;;;;0.10;0.10;;;;;;;17.84;87.69;99540.28;4933762;29;20411;-67
2021/08/31 02:42:09;;;;;;;0.10;0.10;;;;;;;17.87;87.86;99550.84;4940163;29;20051;-67
2021/08/31 02:44:34;;;;;;;0.10;0.10;;;;;;;17.84;87.53;99551.22;4952771;29;20058;-66
2021/08/31 02:47:00;;;;;;;0.20;0.20;;;;;;;17.80;87.57;99558.16;4937320;29;20047;-66
2021/08/31 02:49:26;;;;;;;0.10;0.10;;;;;;;17.83;87.16;99565.97;4937088;29;20121;-68
2021/08/31 02:51:52;;;;;;;0.10;0.10;;;;;;;17.88;87.17;99562.63;4952435;29;20054;-67
2021/08/31 02:54:18;;;;;;;0.17;0.17;;;;;;;17.89;87.09;99564.31;4954364;28;20051;-67
2021/08/31 02:56:44;;;;;;;0.20;0.20;;;;;;;17.94;86.90;99557.19;4952713;29;20110;-66
2021/08/31 02:59:09;;;;;;;0.20;0.20;;;;;;;17.95;86.77;99549.81;4936465;29;20050;-66
2021/08/31 03:02:04;;;;;;;0.10;0.10;;;;;;;17.96;86.60;99559.75;4954113;29;20077;-66
2021/08/31 03:04:24;;;;;;;0.20;0.20;;;;;;;17.92;86.42;99570.25;4953039;29;20055;-67
2021/08/31 03:06:49;;;;;;;0.10;0.10;;;;;;;17.95;86.55;99558.03;4937016;29;20426;-73
2021/08/31 03:09:15;;;;;;;0.10;0.10;;;;;;;17.90;86.49;99555.91;4936725;29;20410;-66
2021/08/31 03:11:41;;;;;;;0.10;0.10;;;;;;;17.88;86.32;99551.66;4953481;29;20085;-65
2021/08/31 03:14:07;;;;;;;0.10;0.10;;;;;;;17.93;86.11;99571.91;4953584;29;20053;-67
2021/08/31 03:16:33;;;;;;;0.10;0.10;;;;;;;17.99;86.27;99565.66;4952886;28;20039;-69
2021/08/31 03:18:59;;;;;;;0.15;0.15;;;;;;;18.01;85.85;99573.66;4968990;28;20082;-65
2021/08/31 03:21:24;;;;;;;0.10;0.10;;;;;;;17.94;86.10;99584.53;4953556;29;20046;-67
2021/08/31 03:23:50;;;;;;;0.10;0.10;;;;;;;17.95;85.72;99568.97;4953408;29;20075;-69
2021/08/31 03:26:16;;;;;;;0.20;0.20;;;;;;;17.99;85.46;99571.13;4921496;29;20525;-67
2021/08/31 03:28:42;;;;;;;0.13;0.13;;;;;;;18.03;85.30;99557.88;4951983;28;20058;-68
2021/08/31 03:31:07;;;;;;;0.20;0.20;;;;;;;18.07;84.92;99564.66;4920713;29;20046;-69
2021/08/31 03:33:33;;;;;;;0.10;0.10;;;;;;;18.05;84.98;99572.19;4952468;29;20414;-70
2021/08/31 03:35:59;;;;;;;0.10;0.10;;;;;;;18.10;84.95;99566.97;4951547;28;20081;-69
2021/08/31 03:38:25;;;;;;;0.10;0.10;;;;;;;18.06;85.17;99566.53;4951990;29;20510;-68
2021/08/31 03:40:52;;;;;;;0.10;0.10;;;;;;;18.05;85.22;99562.09;4951254;29;20066;-66
2021/08/31 03:43:18;;;;;;;0.17;0.17;;;;;;;18.02;85.21;99543.34;4952833;28;20082;-69
2021/08/31 03:45:44;;;;;;;0.10;0.10;;;;;;;18.06;85.55;99541.91;4945916;29;20095;-68
2021/08/31 03:48:10;;;;;;;0.10;0.10;;;;;;;17.98;85.31;99542.06;4932207;29;20052;-66
2021/08/31 03:50:36;;;;;;;0.10;0.10;;;;;;;18.07;85.19;99538.13;4900687;29;20527;-66
2021/08/31 03:53:02;;;;;;;0.20;0.20;;;;;;;18.07;84.89;99535.38;4916090;29;20527;-67
2021/08/31 03:55:28;;;;;;;0.17;0.17;;;;;;;18.11;84.87;99548.66;4934597;29;20039;-68
2021/08/31 03:57:53;;;;;;;0.13;0.13;;;;;;;18.04;85.27;99563.16;4951341;29;20051;-68
2021/08/31 04:00:19;;;;;;;0.20;0.20;;;;;;;18.12;85.29;99564.03;4951934;29;20047;-68
2021/08/31 04:02:45;;;;;;;0.20;0.20;;;;;;;18.14;84.87;99551.00;4951861;29;20051;-67
2021/08/31 04:05:11;;;;;;;0.20;0.20;;;;;;;18.16;84.50;99537.94;4919835;29;20142;-67
2021/08/31 04:07:37;;;;;;;0.15;0.15;;;;;;;18.20;83.93;99533.75;4952534;29;20079;-68
2021/08/31 04:10:03;;;;;;;0.10;0.10;;;;;;;18.16;84.04;99535.22;4950936;29;20447;-68
2021/08/31 04:12:29;;;;;;;0.20;0.20;;;;;;;18.19;83.45;99521.13;4951119;29;20055;-69
2021/08/31 04:14:54;;;;;;;0.10;0.10;;;;;;;18.16;84.15;99524.25;4950349;29;20117;-68
2021/08/31 04:17:20;;;;;;;0.10;0.10;;;;;;;18.19;83.64;99519.22;4950940;28;20058;-67
2021/08/31 04:19:46;;;;;;;0.20;0.20;;;;;;;18.24;83.24;99515.88;4950780;29;20171;-68
2021/08/31 04:22:12;;;;;;;0.10;0.10;;;;;;;18.18;83.29;99519.44;4935025;29;20490;-68
2021/08/31 04:24:37;;;;;;;0.20;0.20;;;;;;;18.22;82.85;99520.72;4947973;28;20040;-70
2021/08/31 04:27:04;;;;;;;0.17;0.17;;;;;;;18.21;82.57;99513.53;4966479;28;20159;-69
2021/08/31 04:29:30;;;;;;;0.10;0.10;;;;;;;18.23;82.44;99517.78;4950561;28;20134;-70
2021/08/31 04:31:56;;;;;;;0.15;0.15;;;;;;;18.14;82.80;99520.91;4918578;29;20217;-68
2021/08/31 04:34:22;;;;;;;0.20;0.20;;;;;;;18.08;83.08;99520.66;4932982;29;20073;-67
2021/08/31 04:36:47;;;;;;;0.10;0.10;;;;;;;18.04;82.81;99508.44;4951869;29;20047;-71
2021/08/31 04:39:13;;;;;;;0.20;0.20;;;;;;;18.06;82.81;99500.00;4934955;29;20426;-69
2021/08/31 04:41:40;;;;;;;0.10;0.10;;;;;;;18.01;82.69;99503.38;4952840;28;20491;-70
2021/08/31 04:44:06;;;;;;;0.20;0.20;;;;;;;18.04;82.61;99502.97;4970557;28;20044;-69
2021/08/31 04:46:32;;;;;;;0.10;0.10;;;;;;;18.01;82.73;99497.06;4954575;29;20054;-70
2021/08/31 04:48:58;;;;;;;0.20;0.20;;;;;;;18.12;82.29;99510.16;4938475;29;20069;-70
2021/08/31 04:51:23;;;;;;;0.17;0.17;;;;;;;18.15;82.40;99508.91;4938389;29;20054;-68
2021/08/31 04:53:49;;;;;;;0.20;0.20;;;;;;;18.22;81.64;99496.94;4934036;29;20079;-71
2021/08/31 04:56:15;;;;;;;0.13;0.13;;;;;;;18.15;81.70;99503.44;4925002;28;20047;-68
2021/08/31 04:58:41;;;;;;;0.20;0.20;;;;;;;18.24;81.27;99508.50;4949266;28;20051;-68
2021/08/31 05:01:06;;;;;;;0.10;0.10;;;;;;;18.30;81.84;99509.59;4953966;28;20049;-68
2021/08/31 05:03:34;;;;;;;0.20;0.20;;;;;;;18.31;81.17;99508.53;4953521;29;20462;-68
2021/08/31 05:05:59;;;;;;;0.10;0.10;;;;;;;18.29;81.53;99499.72;4953972;29;20150;-68
2021/08/31 05:08:25;;;;;;;0.10;0.10;;;;;;;18.36;81.32;99500.56;4954472;29;20051;-69
2021/08/31 05:10:51;;;;;;;0.20;0.20;;;;;;;18.40;81.34;99501.84;4937965;29;20063;-68
2021/08/31 05:13:16;;;;;;;0.10;0.10;;;;;;;18.42;81.54;99509.84;4952958;29;20058;-68
2021/08/31 05:15:42;;;;;;;0.10;0.10;;;;;;;18.40;80.79;99501.84;4959606;28;20042;-68
2021/08/31 05:18:08;;;;;;;0.20;0.20;;;;;;;18.48;80.82;99498.06;4948700;28;20043;-68
2021/08/31 05:20:34;;;;;;;0.20;0.20;;;;;;;18.38;80.89;99514.88;4974599;28;20053;-72
2021/08/31 05:23:00;;;;;;;0.10;0.10;;;;;;;18.24;80.95;99508.50;4974331;28;20046;-69
2021/08/31 05:25:27;;;;;;;0.10;0.10;;;;;;;18.27;81.11;99499.88;4954905;28;20054;-72
2021/08/31 05:27:54;;;;;;;0.20;0.20;;;;;;;18.31;80.91;99503.91;4949952;28;20043;-77
2021/08/31 05:30:20;;;;;;;0.13;0.13;;;;;;;18.38;80.64;99512.16;4937800;29;20079;-70
2021/08/31 05:32:46;;;;;;;0.20;0.20;;;;;;;18.48;80.13;99498.91;4926128;28;20134;-73
2021/08/31 05:35:11;;;;;;;0.20;0.20;;;;;;;18.65;79.86;99498.53;4937812;28;20054;-74
2021/08/31 05:37:38;;;;;;;0.20;0.20;;;;;;;18.84;78.99;99495.03;4940337;28;20043;-71
2021/08/31 05:40:06;;;;;;;0.20;0.20;;;;;;;18.75;79.16;99488.03;4939000;28;20047;-73
2021/08/31 05:42:32;;;;;;;0.20;0.20;;;;;;;18.97;79.17;99492.28;4925518;29;20447;-71
2021/08/31 05:44:58;;;;;;;0.20;0.20;;;;;;;19.00;78.07;99494.59;4956223;28;20041;-71
2021/08/31 05:47:23;;;;;;;0.20;0.20;;;;;;;18.84;77.91;99486.81;4934416;29;20078;-73
2021/08/31 05:49:49;;;;;;;0.20;0.20;;;;;;;18.78;78.47;99490.38;4937333;29;20411;-77
2021/08/31 05:52:16;;;;;;;0.20;0.20;;;;;;;18.82;78.76;99494.38;4955369;28;20047;-80
2021/08/31 05:54:42;;;;;;;0.20;0.20;;;;;;;18.74;78.46;99480.88;4951593;29;20056;-81
2021/08/31 05:57:10;;;;;;;0.20;0.20;;;;;;;18.81;78.93;99486.38;4923621;29;20069;-83
2021/08/31 05:59:40;;;;;;;0.20;0.20;;;;;;;18.90;77.96;99485.94;4949148;29;20047;-82
2021/08/31 06:02:08;;;;;;;0.20;0.20;;;;;;;19.04;77.93;99484.06;4955675;29;20039;-83
2021/08/31 06:04:38;;;;;;;0.20;0.20;;;;;;;18.95;77.58;99488.94;4938727;29;20159;-78
2021/08/31 06:07:05;;;;;;;0.20;0.20;;;;;;;18.99;77.61;99479.22;4955008;29;20039;-82
2021/08/31 06:09:31;;;;;;;0.75;0.20;;;;;;;19.03;77.52;99480.50;4949651;28;20519;-84
2021/08/31 06:11:58;;;;;;;0.20;0.20;;;;;;;19.14;77.08;99491.88;4955707;28;20043;-83
2021/08/31 06:14:24;;;;;;;0.20;0.20;;;;;;;19.16;76.28;99489.75;4954528;29;20130;-83
2021/08/31 06:16:50;;;;;;;0.20;0.20;;;;;;;19.18;76.29;99488.50;4938551;29;20134;-84
2021/08/31 06:19:17;;;;;;;0.20;0.20;;;;;;;19.24;76.25;99476.72;4944774;28;20066;-82
2021/08/31 06:21:42;;;;;;;0.20;0.20;;;;;;;19.41;75.64;99482.56;4975266;28;20043;-83
2021/08/31 06:24:08;;;;;;;0.20;0.20;;;;;;;19.52;74.76;99476.47;4952088;29;20527;-83
2021/08/31 06:26:34;;;;;;;0.20;0.20;;;;;;;19.71;74.02;99479.41;4939484;29;20074;-78
2021/08/31 06:29:00;;;;;;;0.20;0.20;;;;;;;19.72;73.80;99484.69;4953278;29;20138;-80
2021/08/31 06:31:25;;;;;;;0.40;0.30;;;;;;;19.74;73.87;99481.72;4954526;29;20043;-80
2021/08/31 06:33:51;;;;;;;0.30;0.30;;;;;;;19.91;73.44;99466.47;4936000;29;20136;-82
2021/08/31 06:36:17;;;;;;;0.20;0.20;;;;;;;20.06;72.82;99479.91;4941491;29;20069;-84
2021/08/31 06:38:43;;;;;;;0.30;0.30;;;;;;;19.93;72.95;99480.81;4957178;29;20039;-82
2021/08/31 06:41:09;;;;;;;0.20;0.20;;;;;;;19.86;73.31;99476.41;4956701;28;20058;-83
2021/08/31 06:43:35;;;;;;;0.30;0.30;;;;;;;20.09;72.96;99484.13;4940638;29;20472;-81
2021/08/31 06:46:01;;;;;;;0.20;0.20;;;;;;;20.29;71.94;99479.38;4958478;29;20106;-83
2021/08/31 06:48:27;;;;;;;0.20;0.20;;;;;;;20.43;71.19;99474.69;4940719;29;20043;-82
2021/08/31 06:50:53;;;;;;;0.38;0.20;;;;;;;20.46;71.14;99477.81;4953812;29;20051;-84
2021/08/31 06:53:18;;;;;;;0.30;0.30;;;;;;;20.72;70.44;99478.75;4936600;29;20058;-78
2021/08/31 06:55:44;;;;;;;0.30;0.30;;;;;;;21.45;67.77;99477.38;4951866;29;20062;-85
2021/08/31 06:58:10;;;;;;;0.30;0.30;;;;;;;21.74;66.62;99476.63;4940949;29;20141;-82
2021/08/31 07:00:36;;;;;;;0.20;0.20;;;;;;;21.74;66.55;99479.38;4956295;29;20050;-83
2021/08/31 07:03:01;;;;;;;0.28;0.28;;;;;;;21.79;66.54;99482.31;4939097;28;20043;-83
2021/08/31 07:05:27;;;;;;;0.30;0.30;;;;;;;22.20;65.34;99469.78;4955984;28;20082;-83
2021/08/31 07:07:53;;;;;;;0.40;0.40;;;;;;;22.79;63.09;99470.84;4938696;29;20050;-81
2021/08/31 07:10:19;;;;;;;0.70;0.70;;;;;;;24.27;59.07;99465.25;4954630;28;20058;-85
2021/08/31 07:12:45;;;;;;;0.90;0.90;;;;;;;25.70;53.83;99481.63;4938719;29;20169;-81
2021/08/31 07:15:11;;;;;;;1.23;1.23;;;;;;;26.68;50.88;99459.63;4950847;29;20081;-81
2021/08/31 07:17:37;;;;;;;0.52;0.52;;;;;;;26.78;50.37;99453.38;4956685;28;20051;-82
2021/08/31 07:20:04;;;;;;;0.90;0.90;;;;;;;27.53;48.76;99460.66;4955569;28;20590;-84
2021/08/31 07:22:30;;;;;;;0.80;0.80;;;;;;;27.69;47.39;99450.50;4939497;29;20061;-82
2021/08/31 07:24:56;;;;;;;0.80;0.80;;;;;;;28.59;45.91;99454.00;4952740;29;20134;-83
2021/08/31 07:27:22;;;;;;;0.80;0.80;;;;;;;29.27;44.06;99461.34;4953141;28;20105;-83
2021/08/31 07:29:48;;;;;;;0.80;0.80;;;;;;;29.47;43.45;99457.69;4924574;29;20052;-83
2021/08/31 07:32:15;;;;;;;0.77;0.77;;;;;;;30.03;41.56;99446.44;4956848;29;20190;-85
2021/08/31 07:34:43;;;;;;;1.00;1.00;;;;;;;30.44;41.37;99435.97;4944718;29;20070;-81
2021/08/31 07:37:09;;;;;;;0.73;0.73;;;;;;;30.81;40.10;99437.44;4948458;29;20100;-80
2021/08/31 07:39:35;;;;;;;0.80;0.80;;;;;;;31.22;38.79;99439.88;4944296;28;20596;-79
2021/08/31 07:42:01;;;;;;;0.80;0.80;;;;;;;31.16;38.09;99429.91;4955546;29;20422;-82
2021/08/31 07:44:27;;;;;;;0.80;0.80;;;;;;;30.65;39.32;99433.06;4954240;29;20106;-87
2021/08/31 07:46:53;;;;;;;0.70;0.70;;;;;;;30.17;40.70;99427.19;4941169;29;20063;-84
2021/08/31 07:49:19;;;;;;;0.90;0.90;;;;;;;30.08;41.06;99426.06;4949511;28;20094;-85
2021/08/31 07:51:45;;;;;;;0.80;0.80;;;;;;;30.45;40.05;99420.03;4941004;28;20472;-81
2021/08/31 07:54:11;;;;;;;0.80;0.80;;;;;;;30.72;39.75;99426.03;4961254;28;20118;-81
2021/08/31 07:56:38;;;;;;;0.80;0.80;;;;;;;31.15;39.11;99414.25;4966075;28;20034;-83
2021/08/31 07:59:04;;;;;;;0.80;0.80;;;;;;;31.65;37.70;99414.91;4983015;28;20097;-84
2021/08/31 08:01:31;;;;;;;1.05;0.80;;;;;;;32.16;36.89;99414.34;4968922;28;20448;-82
2021/08/31 08:03:58;;;;;;;0.90;0.90;;;;;;;32.68;35.94;99409.69;4974092;28;20043;-82
2021/08/31 08:06:23;;;;;;;0.90;0.90;;;;;;;32.83;35.81;99411.41;4955168;28;20067;-80
2021/08/31 08:08:49;;;;;;;0.90;0.90;;;;;;;33.34;34.45;99408.63;4944043;28;20043;-82
2021/08/31 08:11:15;;;;;;;0.80;0.80;;;;;;;33.29;35.10;99410.69;4964979;28;20066;-85
2021/08/31 08:13:41;;;;;;;0.80;0.80;;;;;;;33.44;34.03;99426.41;4972181;28;20102;-85
2021/08/31 08:16:07;;;;;;;0.75;0.75;;;;;;;32.98;34.29;99410.38;4949935;28;20043;-73
2021/08/31 08:18:33;;;;;;;0.80;0.80;;;;;;;32.47;35.65;99416.72;4978929;28;20039;-81
2021/08/31 08:20:59;;;;;;;0.70;0.70;;;;;;;32.38;35.84;99406.19;4971156;28;20061;-80
2021/08/31 08:23:26;;;;;;;0.88;0.88;;;;;;;32.65;35.10;99411.16;4969781;28;20371;-82
2021/08/31 08:25:52;;;;;;;0.80;0.80;;;;;;;33.02;34.81;99397.41;4958551;28;20518;-84
2021/08/31 08:28:20;;;;;;;0.90;0.90;;;;;;;33.05;34.37;99403.25;4961096;29;20050;-83
2021/08/31 08:30:45;;;;;;;0.90;0.90;;;;;;;33.62;33.87;99403.09;4949344;29;20082;-84
2021/08/31 08:33:11;;;;;;;0.80;0.80;;;;;;;33.71;33.51;99395.59;4948459;29;20043;-84
2021/08/31 08:35:37;;;;;;;0.80;0.80;;;;;;;33.85;33.86;99393.63;4956150;29;20051;-83
2021/08/31 08:38:03;;;;;;;0.80;0.80;;;;;;;34.28;33.69;99390.50;4954368;28;20062;-83
2021/08/31 08:40:31;;;;;;;0.70;0.70;;;;;;;33.97;33.24;99400.69;4954078;29;20047;-83
2021/08/31 08:42:56;;;;;;;0.60;0.60;;;;;;;34.23;32.21;99399.06;4941411;29;20043;-84
2021/08/31 08:45:22;;;;;;;0.60;0.60;;;;;;;33.47;33.20;99397.78;4958808;29;20115;-84
2021/08/31 08:47:48;;;;;;;0.68;0.68;;;;;;;32.60;34.91;99376.78;4957455;28;20487;-80
2021/08/31 08:50:14;;;;;;;0.70;0.70;;;;;;;33.10;34.33;99379.94;4946915;28;20054;-83
2021/08/31 08:52:40;;;;;;;0.80;0.80;;;;;;;33.58;33.57;99376.81;4971351;28;20046;-80
2021/08/31 08:55:10;;;;;;;0.90;0.70;;;;;;;33.65;34.26;99382.84;4953006;28;20060;-81
2021/08/31 08:57:37;;;;;;;0.63;0.63;;;;;;;33.32;34.43;99371.69;4949747;28;20082;-81
2021/08/31 09:00:08;;;;;;;0.60;0.60;;;;;;;33.43;34.27;99363.09;4958678;28;20062;-84
2021/08/31 09:02:35;;;;;;;0.80;0.80;;;;;;;34.22;32.80;99369.31;4960149;28;20023;-83
2021/08/31 09:05:07;;;;;;;0.80;0.80;;;;;;;34.10;32.64;99365.41;4950185;28;20690;-81
2021/08/31 09:07:38;;;;;;;0.77;0.77;;;;;;;33.20;33.47;99365.72;4921352;29;20047;-81
2021/08/31 09:10:16;;;;;;;0.90;0.90;;;;;;;33.35;33.56;99359.84;4942725;29;20044;-80
2021/08/31 09:12:46;;;;;;;0.90;0.90;;;;;;;33.77;33.16;99362.69;4942011;29;20546;-83
2021/08/31 09:15:35;;;;;;;0.90;0.90;;;;;;;34.16;32.35;99367.78;4943813;28;20111;-84
2021/08/31 09:18:06;;;;;;;0.80;0.80;;;;;;;34.71;31.60;99359.22;4938786;28;20051;-78
2021/08/31 09:20:37;;;;;;;0.80;0.80;;;;;;;34.96;30.94;99348.50;4933062;29;20059;-79
2021/08/31 09:23:04;;;;;;;0.80;0.80;;;;;;;34.55;31.71;99343.88;4938762;28;20054;-81
2021/08/31 09:25:38;;;;;;;0.75;0.75;;;;;;;34.83;31.31;99355.84;4938385;28;20047;-78
2021/08/31 09:28:18;;;;;;;0.77;0.77;;;;;;;34.23;32.22;99359.78;4949083;28;20063;-82
2021/08/31 09:30:45;;;;;;;0.80;0.80;;;;;;;33.68;33.16;99348.59;4955470;29;20053;-79
2021/08/31 09:33:15;;;;;;;0.80;0.80;;;;;;;34.00;32.82;99352.41;4985385;28;20047;-79
2021/08/31 09:35:43;;;;;;;0.90;0.90;;;;;;;34.25;32.53;99345.41;4995446;28;20077;-81
2021/08/31 09:38:13;;;;;;;0.70;0.70;;;;;;;34.59;31.58;99338.47;4965781;28;20051;-84
2021/08/31 09:40:43;;;;;;;0.80;0.80;;;;;;;34.85;31.65;99335.84;4970573;28;20066;-84
2021/08/31 09:43:18;;;;;;;0.77;0.77;;;;;;;34.57;31.87;99341.59;4972868;28;20148;-82
2021/08/31 09:45:48;;;;;;;0.70;0.70;;;;;;;34.50;31.76;99342.03;4953644;28;20046;-86
2021/08/31 09:48:17;;;;;;;0.77;0.77;;;;;;;34.80;31.67;99334.81;4967962;28;20110;-83
2021/08/31 09:50:54;;;;;;;0.80;0.80;;;;;;;35.18;31.37;99336.44;4968355;28;20394;-85
2021/08/31 09:53:26;;;;;;;0.80;0.80;;;;;;;34.88;31.64;99335.19;4960986;29;20538;-86
2021/08/31 09:56:01;;;;;;;0.70;0.70;;;;;;;34.70;32.12;99331.44;4963119;28;20094;-83
2021/08/31 09:58:29;;;;;;;0.70;0.70;;;;;;;35.13;31.04;99333.75;4966097;29;20047;-83
2021/08/31 10:00:55;;;;;;;0.80;0.80;;;;;;;35.25;30.77;99334.81;4966831;29;20047;-83
2021/08/31 10:03:23;;;;;;;0.50;0.50;;;;;;;35.07;31.16;99326.59;4967509;29;20051;-76
2021/08/31 10:05:50;;;;;;;0.75;0.75;;;;;;;35.51;30.82;99328.50;4967053;29;20103;-85
2021/08/31 10:08:17;;;;;;;0.70;0.70;;;;;;;35.67;29.90;99334.50;4964038;28;20511;-83
2021/08/31 10:10:46;;;;;;;0.73;0.73;;;;;;;34.69;30.62;99327.81;4961973;29;20130;-85
2021/08/31 10:13:17;;;;;;;0.75;0.75;;;;;;;34.68;31.17;99331.78;4964143;29;20175;-84
2021/08/31 10:15:46;;;;;;;0.70;0.70;;;;;;;34.84;30.96;99329.41;4966296;28;20044;-81
2021/08/31 10:18:14;;;;;;;0.60;0.60;;;;;;;35.25;30.22;99322.72;4948081;29;20078;-79
2021/08/31 10:20:45;;;;;;;0.60;0.60;;;;;;;35.50;30.09;99330.47;4948082;29;20055;-82
2021/08/31 10:23:13;;;;;;;0.60;0.60;;;;;;;35.57;30.16;99329.19;4949274;29;20106;-80
2021/08/31 10:25:39;;;;;;;0.40;0.40;;;;;;;35.12;30.95;99327.28;4968358;28;20083;-84
2021/08/31 10:28:26;;;;;;;0.55;0.55;;;;;;;34.86;30.96;99320.66;4969764;29;20059;-84
2021/08/31 10:30:54;;;;;;;0.60;0.60;;;;;;;35.05;30.89;99324.13;4968329;29;20050;-84
2021/08/31 10:33:29;;;;;;;0.50;0.50;;;;;;;34.77;31.45;99323.41;4966645;29;20102;-82
2021/08/31 10:35:56;;;;;;;0.52;0.52;;;;;;;35.10;30.73;99321.16;4965521;28;20093;-83
2021/08/31 10:38:46;;;;;;;0.68;0.68;;;;;;;35.23;30.57;99320.25;4978434;28;20095;-82
2021/08/31 10:41:36;;;;;;;0.60;0.60;;;;;;;35.75;30.44;99320.47;4947996;29;20047;-78
2021/08/31 10:44:03;;;;;;;0.50;0.50;;;;;;;35.39;30.17;99311.38;4963825;29;20035;-84
2021/08/31 10:46:57;;;;;;;0.60;0.60;;;;;;;35.28;30.89;99311.66;4949801;29;20058;-84
2021/08/31 10:49:24;;;;;;;0.60;0.60;;;;;;;35.47;29.80;99310.56;4979874;28;20070;-83
2021/08/31 10:52:02;;;;;;;0.57;0.57;;;;;;;35.26;30.49;99299.09;4955572;29;20538;-85
2021/08/31 10:54:58;;;;;;;0.60;0.60;;;;;;;34.70;30.80;99295.78;4961793;29;20051;-85
2021/08/31 10:57:56;;;;;;;0.60;0.60;;;;;;;35.01;30.66;99306.25;4960700;28;20055;-84
2021/08/31 11:00:25;;;;;;;0.50;0.50;;;;;;;35.47;29.90;99302.13;4961667;28;20059;-84
2021/08/31 11:02:53;;;;;;;0.50;0.50;;;;;;;35.63;30.08;99309.03;4968510;29;20047;-79
2021/08/31 11:05:21;;;;;;;0.57;0.57;;;;;;;35.93;29.05;99303.63;4947146;29;20521;-86
2021/08/31 11:07:48;;;;;;;0.50;0.50;;;;;;;36.33;28.94;99297.91;4962490;29;20391;-80
2021/08/31 11:10:21;;;;;;;0.50;0.50;;;;;;;35.92;28.75;99301.97;4964123;28;20091;-79
2021/08/31 11:12:48;;;;;;;0.50;0.50;;;;;;;35.54;29.55;99296.91;4964385;28;20122;-77
2021/08/31 11:15:34;;;;;;;0.52;0.52;;;;;;;35.61;28.98;99291.63;4979894;28;20045;-84
2021/08/31 11:18:00;;;;;;;0.50;0.50;;;;;;;35.18;28.67;99300.72;4951775;29;20054;-78
2021/08/31 11:20:26;;;;;;;0.50;0.50;;;;;;;35.44;28.62;99302.81;4945029;29;20151;-83
2021/08/31 11:23:19;;;;;;;0.50;0.50;;;;;;;34.81;29.76;99293.50;4967616;28;20138;-83
2021/08/31 11:25:47;;;;;;;0.50;0.50;;;;;;;34.62;29.92;99282.50;4979969;28;20047;-82
2021/08/31 11:28:18;;;;;;;0.50;0.50;;;;;;;34.57;30.90;99279.81;4963441;28;20366;-83
2021/08/31 11:30:51;;;;;;;0.50;0.50;;;;;;;34.22;30.36;99273.91;4971050;28;20035;-84
2021/08/31 11:33:39;;;;;;;0.50;0.50;;;;;;;34.24;30.77;99268.81;4989723;28;20043;-79
2021/08/31 11:36:05;;;;;;;0.50;0.50;;;;;;;34.87;30.46;99278.19;4971664;28;20452;-81